Terminal Aerodrome Forecast
Issued by NWS

Home | Current Version | Previous Version | Text Only | Print | Product List | Glossary Off
Versions: 1 2 3 4 5 6 7 8 9 10 11 12 13 14 15 16

000
FTUS44 KLZK 182300
TAFLIT
TAF
KLIT 182324Z 1900/1924 20007KT P6SM VCTS SCT035CB SCT250
      TEMPO 1900/1902 04015G25KT 5SM -TSRA BR BKN025CB
     FM190200 20004KT P6SM SCT050 SCT150
      TEMPO 1908/1912 5SM BR
     FM191500 26009KT P6SM SCT040=

USA.gov is the U.S. government's official web portal to all federal, state and local government web resources and services.